Time;durP1;ratioP1;P1;durP2;ratioP2;P2;SDS_P1;SDS_P2;PMS_P1;PMS_P2;Temp;Humidity;BMP_temperature;BMP_pressure;BME280_temperature;BME280_humidity;BME280_pressure;Samples;Min_cycle;Max_cycle;Signal;HPM_P1;HPM_P2
2023/04/05 00:00:24;;;;;;;7.10;5.32;;;;;;;-3.51;100.00;93287.06;2073038;28;20200;-84
2023/04/05 00:01:28;;;;;;;9.07;5.30;;;;;;;-3.46;100.00;93286.09;2065229;28;20026;-84
2023/04/05 00:02:35;;;;;;;6.07;5.20;;;;;;;-3.49;100.00;93295.31;2069852;28;20060;-84
2023/04/05 00:03:39;;;;;;;8.45;5.15;;;;;;;-3.48;100.00;93286.38;2079409;28;20029;-84
2023/04/05 00:04:49;;;;;;;6.95;5.00;;;;;;;-3.55;100.00;93288.78;2075666;28;20040;-84
2023/04/05 00:05:55;;;;;;;7.65;6.07;;;;;;;-3.71;100.00;93293.06;2081370;28;20043;-84
2023/04/05 00:06:57;;;;;;;8.65;5.03;;;;;;;-3.80;100.00;93286.06;2074328;28;20036;-85
2023/04/05 00:08:07;;;;;;;8.80;4.80;;;;;;;-3.67;100.00;93289.50;2072964;28;20049;-84
2023/04/05 00:09:08;;;;;;;10.10;5.20;;;;;;;-3.60;100.00;93287.13;2061645;28;20026;-85
2023/04/05 00:10:11;;;;;;;9.25;5.57;;;;;;;-3.61;100.00;93290.06;2080413;28;20568;-84
2023/04/05 00:11:14;;;;;;;7.32;5.18;;;;;;;-3.67;100.00;93294.72;2072189;28;20379;-85
2023/04/05 00:12:15;;;;;;;5.97;5.38;;;;;;;-3.55;100.00;93281.72;2063509;28;20073;-85
2023/04/05 00:13:18;;;;;;;7.03;5.30;;;;;;;-3.58;100.00;93282.34;2064280;28;20461;-84
2023/04/05 00:14:27;;;;;;;7.30;5.85;;;;;;;-3.64;100.00;93282.88;2070406;28;20480;-84
2023/04/05 00:15:37;;;;;;;5.30;4.50;;;;;;;-3.62;100.00;93278.84;2073070;28;20480;-84
2023/04/05 00:16:39;;;;;;;8.05;5.45;;;;;;;-3.70;100.00;93284.91;2061708;28;20049;-84
2023/04/05 00:17:46;;;;;;;8.75;5.50;;;;;;;-3.72;100.00;93287.09;2064598;28;20034;-84
2023/04/05 00:18:51;;;;;;;6.85;4.82;;;;;;;-3.65;100.00;93279.47;2065375;28;20022;-85
2023/04/05 00:19:56;;;;;;;7.20;5.20;;;;;;;-3.63;100.00;93284.41;2057090;28;20566;-84
2023/04/05 00:21:05;;;;;;;7.03;5.25;;;;;;;-3.66;100.00;93277.19;2065649;28;20117;-85
2023/04/05 00:22:09;;;;;;;6.47;5.35;;;;;;;-3.61;100.00;93272.53;2051175;28;20514;-85
2023/04/05 00:23:13;;;;;;;7.88;4.82;;;;;;;-3.57;100.00;93273.41;2068204;28;20033;-85
2023/04/05 00:24:14;;;;;;;5.70;4.95;;;;;;;-3.60;100.00;93275.91;2061059;28;20125;-85
2023/04/05 00:25:16;;;;;;;7.25;5.25;;;;;;;-3.56;100.00;93269.75;2056008;28;20122;-84
2023/04/05 00:26:19;;;;;;;6.88;5.15;;;;;;;-3.51;100.00;93274.00;2056842;28;20382;-86
2023/04/05 00:27:20;;;;;;;5.72;4.65;;;;;;;-3.39;100.00;93270.63;2068802;28;20873;-85
2023/04/05 00:28:22;;;;;;;7.65;4.97;;;;;;;-3.41;100.00;93270.19;2066676;28;20065;-84
2023/04/05 00:29:25;;;;;;;9.43;4.75;;;;;;;-3.31;100.00;93267.91;2072794;28;20050;-85
2023/04/05 00:30:27;;;;;;;7.50;5.18;;;;;;;-3.34;100.00;93270.41;2065096;28;20463;-85
2023/04/05 00:31:29;;;;;;;7.70;5.32;;;;;;;-3.39;100.00;93263.53;2064109;28;20030;-84
2023/04/05 00:32:30;;;;;;;7.90;5.07;;;;;;;-3.47;100.00;93268.84;2064065;28;20026;-84
2023/04/05 00:33:35;;;;;;;6.68;4.78;;;;;;;-3.43;100.00;93259.28;2064114;28;20120;-86
2023/04/05 00:34:37;;;;;;;7.22;4.78;;;;;;;-3.42;100.00;93260.84;2076135;28;20021;-85
2023/04/05 00:35:41;;;;;;;7.22;4.90;;;;;;;-3.43;100.00;93269.75;2064692;28;20471;-85
2023/04/05 00:36:42;;;;;;;6.07;4.68;;;;;;;-3.44;100.00;93258.53;2055932;28;20110;-85
2023/04/05 00:37:44;;;;;;;5.43;4.60;;;;;;;-3.53;100.00;93262.31;2054400;28;20483;-84
2023/04/05 00:38:51;;;;;;;6.13;5.00;;;;;;;-3.58;100.00;93263.28;2072013;28;20077;-84
2023/04/05 00:39:56;;;;;;;8.77;4.82;;;;;;;-3.57;100.00;93262.97;2069554;28;20030;-84
2023/04/05 00:40:58;;;;;;;8.80;5.00;;;;;;;-3.51;100.00;93260.13;2058347;28;20045;-84
2023/04/05 00:42:07;;;;;;;7.35;5.05;;;;;;;-3.58;100.00;93264.06;2061199;28;20739;-85
2023/04/05 00:43:11;;;;;;;7.28;5.10;;;;;;;-3.57;100.00;93257.75;2068020;28;20022;-85
2023/04/05 00:44:15;;;;;;;9.85;5.00;;;;;;;-3.59;100.00;93261.78;2071694;28;20467;-85
2023/04/05 00:45:16;;;;;;;6.15;4.80;;;;;;;-3.69;100.00;93257.69;2065594;28;20395;-85
2023/04/05 00:46:17;;;;;;;6.35;4.88;;;;;;;-3.66;100.00;93261.53;2065203;28;20487;-85
2023/04/05 00:47:19;;;;;;;6.35;4.95;;;;;;;-3.68;100.00;93259.25;2071220;28;20095;-85
2023/04/05 00:48:22;;;;;;;8.70;5.72;;;;;;;-3.63;100.00;93247.84;2056732;28;20410;-85
2023/04/05 00:49:28;;;;;;;7.55;5.13;;;;;;;-3.61;100.00;93263.94;2068923;28;20041;-85
2023/04/05 00:50:30;;;;;;;6.22;5.00;;;;;;;-3.63;100.00;93258.28;2064077;28;20409;-85
2023/04/05 00:51:32;;;;;;;6.75;4.22;;;;;;;-3.59;100.00;93259.94;2056448;28;20058;-85
2023/04/05 00:52:36;;;;;;;7.95;5.07;;;;;;;-3.58;100.00;93260.69;2052663;28;20455;-85
2023/04/05 00:53:39;;;;;;;10.85;4.85;;;;;;;-3.62;100.00;93260.56;2053526;28;20352;-86
2023/04/05 00:54:42;;;;;;;9.82;5.40;;;;;;;-3.64;100.00;93262.75;2056971;28;20563;-85
2023/04/05 00:55:46;;;;;;;9.05;4.85;;;;;;;-3.67;100.00;93254.78;2056901;28;20050;-84
2023/04/05 00:56:47;;;;;;;6.88;4.95;;;;;;;-3.63;100.00;93253.06;2057911;28;20082;-85
2023/04/05 00:57:54;;;;;;;7.53;5.00;;;;;;;-3.68;100.00;93248.81;2073199;28;20034;-84
2023/04/05 00:58:56;;;;;;;5.80;4.90;;;;;;;-3.74;100.00;93249.31;2072694;28;20034;-87
2023/04/05 00:59:59;;;;;;;6.78;4.72;;;;;;;-3.78;100.00;93248.44;2063244;28;20022;-84
2023/04/05 01:01:21;;;;;;;8.25;4.70;;;;;;;-3.81;100.00;93252.47;2056506;28;20035;-84
2023/04/05 01:02:39;;;;;;;5.95;4.55;;;;;;;-3.75;100.00;93245.19;2076278;28;20414;-85
2023/04/05 01:03:46;;;;;;;6.90;4.95;;;;;;;-3.76;100.00;93243.66;2075044;28;20072;-85
2023/04/05 01:04:55;;;;;;;9.50;5.35;;;;;;;-3.73;100.00;93248.22;2064804;28;20389;-85
2023/04/05 01:06:19;;;;;;;7.63;5.30;;;;;;;-3.59;100.00;93248.72;2071263;28;20052;-85
2023/04/05 01:07:50;;;;;;;7.32;4.72;;;;;;;-3.59;100.00;93249.47;2086921;28;20059;-86
2023/04/05 01:09:24;;;;;;;7.07;5.20;;;;;;;-3.75;100.00;93243.34;2089881;28;20060;-85
2023/04/05 01:10:34;;;;;;;7.72;5.00;;;;;;;-3.77;100.00;93239.53;2070591;28;20048;-85
2023/04/05 01:11:39;;;;;;;7.70;4.38;;;;;;;-3.76;100.00;93241.06;2064225;28;20034;-85
2023/04/05 01:12:48;;;;;;;6.63;5.00;;;;;;;-3.84;100.00;93240.03;2065332;28;20041;-86
2023/04/05 01:13:57;;;;;;;7.30;4.78;;;;;;;-3.86;100.00;93237.00;2063501;28;20101;-85
2023/04/05 01:14:59;;;;;;;6.30;5.25;;;;;;;-3.81;100.00;93242.03;2074612;28;20030;-85
2023/04/05 01:16:00;;;;;;;8.35;5.53;;;;;;;-3.84;100.00;93237.44;2071936;28;20442;-85
2023/04/05 01:17:09;;;;;;;7.97;5.13;;;;;;;-3.89;100.00;93235.03;2079964;28;20017;-85
2023/04/05 01:18:12;;;;;;;6.70;4.72;;;;;;;-3.92;100.00;93233.06;2073403;28;20029;-85
2023/04/05 01:19:17;;;;;;;7.25;5.05;;;;;;;-3.91;100.00;93235.34;2072509;28;20455;-85
2023/04/05 01:20:19;;;;;;;9.13;4.93;;;;;;;-3.93;100.00;93232.28;2072348;28;20037;-85
2023/04/05 01:21:32;;;;;;;6.38;4.90;;;;;;;-4.02;100.00;93233.47;2079956;28;20029;-85
2023/04/05 01:22:58;;;;;;;5.72;4.68;;;;;;;-4.16;100.00;93231.88;2080168;28;20159;-85
2023/04/05 01:24:19;;;;;;;5.85;4.60;;;;;;;-4.03;100.00;93237.91;2075603;28;20472;-85
2023/04/05 01:25:44;;;;;;;5.57;4.68;;;;;;;-3.95;100.00;93233.69;2076491;28;20462;-85
2023/04/05 01:26:57;;;;;;;6.22;5.15;;;;;;;-3.92;100.00;93227.81;2080334;28;20044;-85
2023/04/05 01:28:29;;;;;;;7.53;5.20;;;;;;;-3.89;100.00;93229.81;2067161;28;20029;-85
2023/04/05 01:29:56;;;;;;;6.50;5.40;;;;;;;-3.94;100.00;93219.56;2076616;28;20116;-85
2023/04/05 01:31:10;;;;;;;8.25;5.25;;;;;;;-4.02;100.00;93223.78;2083044;28;20029;-85
2023/04/05 01:32:37;;;;;;;5.65;4.68;;;;;;;-4.07;100.00;93221.38;2071555;28;20037;-84
2023/04/05 01:34:16;;;;;;;8.60;5.15;;;;;;;-4.22;100.00;93221.94;2073715;28;20052;-86
2023/04/05 01:35:37;;;;;;;9.30;5.10;;;;;;;-4.24;100.00;93227.50;2077311;28;20421;-86
2023/04/05 01:37:12;;;;;;;5.50;4.82;;;;;;;-4.13;100.00;93212.19;2077642;28;20041;-85
2023/04/05 01:38:17;;;;;;;4.95;4.20;;;;;;;-4.18;100.00;93217.63;2074189;28;20025;-85
2023/04/05 01:39:22;;;;;;;6.15;4.47;;;;;;;-4.17;100.00;93216.53;2066595;28;20446;-86
2023/04/05 01:40:33;;;;;;;8.98;4.75;;;;;;;-4.16;100.00;93215.47;2071302;28;20134;-84
2023/04/05 01:41:40;;;;;;;8.00;4.88;;;;;;;-4.20;100.00;93215.34;2082693;28;20029;-85
2023/04/05 01:42:45;;;;;;;7.57;5.30;;;;;;;-4.24;100.00;93216.31;2079823;28;20029;-85
2023/04/05 01:43:46;;;;;;;5.97;4.28;;;;;;;-4.20;100.00;93214.59;2066702;28;20023;-85
2023/04/05 01:44:47;;;;;;;6.75;4.88;;;;;;;-4.17;100.00;93213.91;2071969;28;20544;-85
2023/04/05 01:45:49;;;;;;;8.80;4.93;;;;;;;-4.26;100.00;93211.38;2073753;28;20500;-86
2023/04/05 01:46:50;;;;;;;7.20;5.25;;;;;;;-4.27;100.00;93212.47;2072024;28;20238;-85
2023/04/05 01:47:51;;;;;;;5.82;4.53;;;;;;;-4.25;100.00;93212.16;2087865;28;20424;-85
2023/04/05 01:48:53;;;;;;;6.55;4.90;;;;;;;-4.24;100.00;93213.69;2088265;28;20107;-85
2023/04/05 01:49:57;;;;;;;5.70;4.70;;;;;;;-4.28;100.00;93210.97;2079894;28;20367;-86
2023/04/05 01:50:58;;;;;;;7.47;4.88;;;;;;;-4.39;100.00;93207.19;2080113;28;20416;-85
2023/04/05 01:52:00;;;;;;;6.82;5.05;;;;;;;-4.41;100.00;93202.31;2071787;28;20133;-86
2023/04/05 01:53:01;;;;;;;5.43;4.85;;;;;;;-4.32;100.00;93205.59;2087409;28;20417;-85
2023/04/05 01:54:08;;;;;;;5.53;4.72;;;;;;;-4.26;100.00;93208.00;2079501;28;20385;-85
2023/04/05 01:55:09;;;;;;;8.45;4.88;;;;;;;-4.31;100.00;93201.16;2089180;28;20028;-85
2023/04/05 01:56:10;;;;;;;6.78;5.28;;;;;;;-4.33;100.00;93208.53;2080028;28;20478;-85
2023/04/05 01:57:11;;;;;;;7.18;5.22;;;;;;;-4.32;100.00;93192.56;2072309;28;20125;-86
2023/04/05 01:58:12;;;;;;;7.63;5.05;;;;;;;-4.27;100.00;93199.44;2071540;28;20034;-85
2023/04/05 01:59:18;;;;;;;9.35;5.15;;;;;;;-4.18;100.00;93196.75;2071229;28;20026;-84
2023/04/05 02:00:22;;;;;;;8.48;5.03;;;;;;;-4.14;100.00;93198.38;2072839;28;20162;-85
2023/04/05 02:01:24;;;;;;;9.32;5.28;;;;;;;-4.10;100.00;93193.28;2078151;28;20028;-85
2023/04/05 02:02:26;;;;;;;8.98;5.47;;;;;;;-4.15;100.00;93196.88;2072824;28;20419;-85
2023/04/05 02:03:31;;;;;;;8.55;5.18;;;;;;;-4.26;100.00;93187.91;2070535;28;20026;-84
2023/04/05 02:04:35;;;;;;;6.88;5.43;;;;;;;-4.32;100.00;93192.56;2067438;28;20030;-85
2023/04/05 02:05:37;;;;;;;6.95;4.95;;;;;;;-4.25;100.00;93191.31;2061687;28;20030;-87
2023/04/05 02:06:40;;;;;;;10.43;5.30;;;;;;;-4.33;100.00;93190.28;2069617;28;20080;-86
2023/04/05 02:07:41;;;;;;;8.15;5.10;;;;;;;-4.43;100.00;93188.84;2076894;28;20080;-85
2023/04/05 02:08:43;;;;;;;7.53;5.10;;;;;;;-4.40;100.00;93190.03;2079437;28;20018;-85
2023/04/05 02:09:48;;;;;;;6.68;4.78;;;;;;;-4.45;100.00;93187.63;2064027;28;20026;-85
2023/04/05 02:10:52;;;;;;;7.85;4.95;;;;;;;-4.50;100.00;93191.19;2063785;28;20058;-85
2023/04/05 02:11:56;;;;;;;8.43;4.90;;;;;;;-4.34;100.00;93186.91;2072366;28;20490;-85
2023/04/05 02:12:57;;;;;;;8.35;5.15;;;;;;;-4.29;100.00;93185.19;2080013;28;20112;-85
2023/04/05 02:13:58;;;;;;;6.97;5.50;;;;;;;-4.29;100.00;93185.19;2067741;28;20358;-85
2023/04/05 02:14:59;;;;;;;8.75;5.32;;;;;;;-4.39;100.00;93187.13;2078549;28;20036;-85
2023/04/05 02:16:01;;;;;;;7.35;5.10;;;;;;;-4.44;100.00;93187.28;2079669;28;20017;-85
2023/04/05 02:17:02;;;;;;;8.48;5.30;;;;;;;-4.49;100.00;93187.50;2063462;28;20034;-84
2023/04/05 02:18:03;;;;;;;10.07;5.25;;;;;;;-4.46;100.00;93186.84;2055901;28;20018;-84
2023/04/05 02:19:05;;;;;;;8.00;5.07;;;;;;;-4.41;100.00;93181.44;2072056;28;20026;-85
2023/04/05 02:20:11;;;;;;;7.80;5.38;;;;;;;-4.42;100.00;93184.38;2071519;28;20045;-85
2023/04/05 02:21:15;;;;;;;8.55;5.25;;;;;;;-4.50;100.00;93185.22;2067634;28;20499;-85
2023/04/05 02:22:26;;;;;;;9.50;5.45;;;;;;;-4.50;100.00;93174.78;2071679;28;20561;-86
2023/04/05 02:23:29;;;;;;;9.32;5.65;;;;;;;-4.56;100.00;93180.19;2072610;28;20105;-86
2023/04/05 02:24:30;;;;;;;9.23;5.05;;;;;;;-4.64;100.00;93177.66;2079857;28;20029;-86
2023/04/05 02:25:31;;;;;;;7.10;5.03;;;;;;;-4.56;100.00;93176.81;2068217;28;20062;-85
2023/04/05 02:26:33;;;;;;;8.15;5.60;;;;;;;-4.47;100.00;93172.28;2075790;28;20358;-85
2023/04/05 02:27:35;;;;;;;8.93;5.55;;;;;;;-4.47;100.00;93168.94;2071157;28;20025;-85
2023/04/05 02:28:37;;;;;;;8.68;5.38;;;;;;;-4.55;100.00;93167.91;2064604;28;20022;-86
2023/04/05 02:29:41;;;;;;;8.60;5.03;;;;;;;-4.55;100.00;93170.50;2075493;28;20359;-85
2023/04/05 02:30:43;;;;;;;6.30;5.22;;;;;;;-4.54;100.00;93164.22;2066861;28;20117;-84
2023/04/05 02:31:45;;;;;;;7.80;5.40;;;;;;;-4.51;100.00;93155.00;2066795;28;20405;-85
2023/04/05 02:32:47;;;;;;;8.25;5.22;;;;;;;-4.58;100.00;93158.09;2063128;28;20018;-85
2023/04/05 02:33:51;;;;;;;5.63;4.78;;;;;;;-4.63;100.00;93159.06;2063565;28;20034;-85
2023/04/05 02:34:53;;;;;;;8.85;5.38;;;;;;;-4.57;100.00;93160.38;2072435;28;20076;-84
2023/04/05 02:35:56;;;;;;;7.22;5.35;;;;;;;-4.58;100.00;93158.09;2079847;28;20021;-85
2023/04/05 02:36:57;;;;;;;8.35;5.20;;;;;;;-4.60;100.00;93160.28;2079848;28;20378;-85
2023/04/05 02:37:58;;;;;;;7.25;5.35;;;;;;;-4.54;100.00;93159.00;2064524;28;20387;-83
2023/04/05 02:39:00;;;;;;;8.13;5.07;;;;;;;-4.52;100.00;93154.25;2063064;28;20385;-85
2023/04/05 02:40:04;;;;;;;6.68;5.55;;;;;;;-4.56;100.00;93156.72;2082600;28;20045;-86
2023/04/05 02:41:10;;;;;;;8.20;4.78;;;;;;;-4.68;100.00;93159.25;2068786;28;20066;-85
2023/04/05 02:42:12;;;;;;;8.57;5.13;;;;;;;-4.62;100.00;93157.22;2083542;28;20046;-85
2023/04/05 02:43:16;;;;;;;7.32;5.05;;;;;;;-4.65;100.00;93157.88;2084905;28;20536;-85
2023/04/05 02:44:19;;;;;;;6.95;5.18;;;;;;;-4.59;100.00;93159.94;2080012;28;20058;-85
2023/04/05 02:45:22;;;;;;;7.75;4.95;;;;;;;-4.44;100.00;93157.84;2074317;28;20064;-85
2023/04/05 02:46:24;;;;;;;7.32;5.30;;;;;;;-4.49;100.00;93163.25;2074538;28;20041;-85
2023/04/05 02:47:25;;;;;;;7.80;5.28;;;;;;;-4.39;100.00;93158.41;2068819;28;20042;-85
2023/04/05 02:48:26;;;;;;;6.93;5.00;;;;;;;-4.46;100.00;93160.00;2081557;28;20474;-85
2023/04/05 02:49:28;;;;;;;6.13;5.25;;;;;;;-4.58;100.00;93153.66;2073387;28;20050;-85
2023/04/05 02:50:29;;;;;;;9.63;5.05;;;;;;;-4.56;100.00;93159.31;2073202;28;20537;-85
2023/04/05 02:51:33;;;;;;;8.02;5.47;;;;;;;-4.56;100.00;93161.19;2072703;28;20043;-85
2023/04/05 02:52:43;;;;;;;5.88;4.97;;;;;;;-4.51;100.00;93163.59;2073165;28;20052;-85
2023/04/05 02:53:46;;;;;;;9.30;4.82;;;;;;;-4.38;100.00;93161.78;2079373;28;20432;-86
2023/04/05 02:54:48;;;;;;;7.10;5.25;;;;;;;-4.46;100.00;93160.00;2072330;28;20385;-85
2023/04/05 02:55:58;;;;;;;5.85;5.25;;;;;;;-4.53;100.00;93155.28;2071860;28;20121;-84
2023/04/05 02:57:01;;;;;;;6.97;5.25;;;;;;;-4.48;100.00;93151.72;2066250;28;20038;-85
2023/04/05 02:58:02;;;;;;;11.10;5.20;;;;;;;-4.62;100.00;93162.44;2071642;28;20034;-86
2023/04/05 02:59:04;;;;;;;5.97;5.38;;;;;;;-4.74;100.00;93155.34;2076453;28;20021;-85
2023/04/05 03:00:11;;;;;;;8.60;5.32;;;;;;;-4.56;100.00;93150.75;2087204;28;20484;-86
2023/04/05 03:01:16;;;;;;;7.22;4.78;;;;;;;-4.60;100.00;93155.06;2076677;28;20562;-84
2023/04/05 03:02:20;;;;;;;7.55;5.35;;;;;;;-4.62;100.00;93154.59;2064240;28;20597;-85
2023/04/05 03:03:27;;;;;;;6.55;4.50;;;;;;;-4.53;100.00;93154.53;2073810;28;20041;-86
2023/04/05 03:04:33;;;;;;;10.10;5.25;;;;;;;-4.42;100.00;93147.84;2071795;28;20018;-85
2023/04/05 03:05:36;;;;;;;8.23;5.38;;;;;;;-4.56;100.00;93158.56;2061014;28;20415;-85
2023/04/05 03:06:38;;;;;;;8.77;5.40;;;;;;;-4.64;100.00;93154.94;2063683;28;20030;-85
2023/04/05 03:07:41;;;;;;;9.82;5.60;;;;;;;-4.63;100.00;93156.47;2071858;28;20474;-85
2023/04/05 03:08:42;;;;;;;7.30;5.47;;;;;;;-4.69;100.00;93151.78;2079534;28;20029;-86
2023/04/05 03:09:45;;;;;;;6.13;5.47;;;;;;;-4.77;100.00;93148.13;2063425;28;20037;-84
2023/04/05 03:10:53;;;;;;;7.88;5.20;;;;;;;-4.79;100.00;93146.91;2070254;28;20125;-87
2023/04/05 03:11:54;;;;;;;7.88;5.50;;;;;;;-4.77;100.00;93150.75;2064006;28;20066;-84
2023/04/05 03:12:58;;;;;;;7.10;5.35;;;;;;;-4.82;100.00;93143.13;2064341;28;20027;-85
2023/04/05 03:14:00;;;;;;;7.72;5.65;;;;;;;-4.91;100.00;93150.25;2063400;28;20022;-85
2023/04/05 03:15:01;;;;;;;9.38;6.10;;;;;;;-4.83;100.00;93146.78;2067723;28;20042;-85
2023/04/05 03:16:03;;;;;;;7.80;5.60;;;;;;;-4.76;100.00;93149.66;2063060;28;20022;-85
2023/04/05 03:17:08;;;;;;;7.63;5.43;;;;;;;-4.79;100.00;93144.31;2060118;28;20020;-86
2023/04/05 03:18:13;;;;;;;8.20;5.50;;;;;;;-4.86;100.00;93148.19;2065787;28;20034;-84
2023/04/05 03:19:15;;;;;;;12.25;6.22;;;;;;;-4.86;100.00;93147.44;2071998;28;20478;-85
2023/04/05 03:20:18;;;;;;;10.13;5.40;;;;;;;-4.93;100.00;93153.16;2071524;28;20762;-85
2023/04/05 03:21:20;;;;;;;14.15;5.28;;;;;;;-4.90;100.00;93147.31;2063466;28;20030;-84
2023/04/05 03:22:21;;;;;;;8.68;5.95;;;;;;;-4.77;100.00;93145.53;2078075;28;20764;-86
2023/04/05 03:23:30;;;;;;;8.15;5.60;;;;;;;-4.80;100.00;93151.38;2079694;28;20034;-85
2023/04/05 03:24:33;;;;;;;7.38;5.63;;;;;;;-4.89;100.00;93153.28;2073215;28;20034;-86
2023/04/05 03:25:35;;;;;;;7.95;5.30;;;;;;;-5.03;100.00;93156.13;2066065;28;20491;-85
2023/04/05 03:26:36;;;;;;;13.82;5.35;;;;;;;-5.07;100.00;93153.41;2065101;28;20478;-86
2023/04/05 03:27:38;;;;;;;12.05;6.15;;;;;;;-5.09;100.00;93154.81;2064686;28;20030;-84
2023/04/05 03:28:43;;;;;;;9.73;5.30;;;;;;;-5.15;100.00;93156.06;2070297;28;20048;-85
2023/04/05 03:29:54;;;;;;;8.30;5.25;;;;;;;-5.03;100.00;93156.13;2073388;28;20493;-85
2023/04/05 03:30:56;;;;;;;9.52;5.57;;;;;;;-5.03;100.00;93157.97;2074945;28;20022;-85
2023/04/05 03:31:58;;;;;;;6.70;5.57;;;;;;;-4.80;100.00;93156.59;2080869;28;20025;-85
2023/04/05 03:33:01;;;;;;;7.57;5.75;;;;;;;-4.70;100.00;93155.44;2072479;28;20034;-85
2023/04/05 03:34:03;;;;;;;7.72;5.15;;;;;;;-4.87;100.00;93157.13;2080900;28;20021;-86
2023/04/05 03:35:05;;;;;;;9.02;6.05;;;;;;;-4.89;100.00;93153.28;2078106;28;20075;-85
2023/04/05 03:36:08;;;;;;;12.02;6.18;;;;;;;-4.55;100.00;93157.47;2072893;28;20026;-85
2023/04/05 03:37:09;;;;;;;7.95;5.85;;;;;;;-4.58;100.00;93158.88;2065343;28;20441;-85
2023/04/05 03:38:12;;;;;;;9.13;5.90;;;;;;;-4.76;100.00;93154.13;2064683;28;20251;-86
2023/04/05 03:39:14;;;;;;;7.55;5.63;;;;;;;-4.85;100.00;93160.16;2082837;28;20021;-83
2023/04/05 03:40:15;;;;;;;7.53;6.13;;;;;;;-4.96;100.00;93158.22;2083806;28;20022;-85
2023/04/05 03:41:17;;;;;;;6.20;5.55;;;;;;;-4.96;100.00;93155.63;2077004;28;20018;-84
2023/04/05 03:42:24;;;;;;;8.18;5.75;;;;;;;-4.97;100.00;93154.88;2069492;28;20030;-84
2023/04/05 03:43:26;;;;;;;7.88;5.95;;;;;;;-4.98;100.00;93152.59;2080399;28;20028;-85
2023/04/05 03:44:30;;;;;;;11.02;6.18;;;;;;;-5.03;100.00;93155.38;2074045;28;20025;-84
2023/04/05 03:45:32;;;;;;;8.93;6.18;;;;;;;-4.93;100.00;93157.59;2077493;28;20377;-84
2023/04/05 03:46:39;;;;;;;9.55;6.45;;;;;;;-4.88;100.00;93154.81;2073871;28;20018;-86
2023/04/05 03:47:41;;;;;;;10.07;6.05;;;;;;;-5.08;100.00;93157.09;2081918;28;20049;-84
2023/04/05 03:48:42;;;;;;;8.57;6.10;;;;;;;-5.21;100.00;93150.28;2072599;28;20072;-85
2023/04/05 03:49:43;;;;;;;8.68;6.30;;;;;;;-5.20;100.00;93153.63;2069535;28;20072;-85
2023/04/05 03:50:45;;;;;;;10.40;6.10;;;;;;;-5.14;100.00;93158.34;2078172;28;20021;-85
2023/04/05 03:51:46;;;;;;;7.43;5.60;;;;;;;-5.16;100.00;93154.53;2072433;28;20056;-85
2023/04/05 03:52:48;;;;;;;8.48;6.35;;;;;;;-5.24;100.00;93147.53;2064797;28;20029;-86
2023/04/05 03:53:53;;;;;;;9.07;6.13;;;;;;;-5.30;100.00;93148.81;2072432;28;20034;-85
2023/04/05 03:54:59;;;;;;;8.20;6.03;;;;;;;-5.29;100.00;93150.31;2072356;28;20030;-86
2023/04/05 03:56:01;;;;;;;8.73;5.55;;;;;;;-5.34;100.00;93146.81;2075693;28;20120;-86
2023/04/05 03:57:04;;;;;;;7.28;6.07;;;;;;;-5.30;100.00;93149.56;2065489;28;20026;-84
2023/04/05 03:58:06;;;;;;;8.15;6.07;;;;;;;-5.33;100.00;93147.59;2066036;28;20093;-85
2023/04/05 03:59:09;;;;;;;7.95;6.30;;;;;;;-5.33;100.00;93152.78;2069609;28;20018;-84
2023/04/05 04:00:16;;;;;;;9.27;5.72;;;;;;;-5.29;100.00;93150.31;2081701;28;20017;-85
2023/04/05 04:01:17;;;;;;;8.68;5.82;;;;;;;-5.27;100.00;93153.38;2074650;28;20018;-84
2023/04/05 04:02:18;;;;;;;9.55;6.07;;;;;;;-5.27;100.00;93148.16;2080495;28;20428;-84
2023/04/05 04:03:20;;;;;;;9.30;6.03;;;;;;;-5.26;100.00;93149.69;2080664;28;20457;-85
2023/04/05 04:04:21;;;;;;;8.65;5.82;;;;;;;-5.34;100.00;93151.28;2064727;28;20514;-84
2023/04/05 04:05:25;;;;;;;7.05;6.28;;;;;;;-5.36;100.00;93148.19;2064901;28;20518;-85
2023/04/05 04:06:26;;;;;;;7.47;6.05;;;;;;;-5.50;100.00;93148.44;2073330;28;20026;-86
2023/04/05 04:07:28;;;;;;;8.13;5.97;;;;;;;-5.46;100.00;93148.56;2070090;28;20092;-86
2023/04/05 04:08:29;;;;;;;7.95;6.03;;;;;;;-5.41;100.00;93141.34;2064962;28;20074;-85
2023/04/05 04:09:30;;;;;;;8.70;5.82;;;;;;;-5.42;100.00;93150.22;2071047;28;20025;-87
2023/04/05 04:10:34;;;;;;;8.82;5.72;;;;;;;-5.40;100.00;93144.69;2076462;28;20064;-85
2023/04/05 04:11:36;;;;;;;7.80;6.00;;;;;;;-5.34;100.00;93141.63;2070650;28;20076;-86
2023/04/05 04:12:40;;;;;;;9.18;6.20;;;;;;;-5.30;100.00;93146.19;2079515;28;20040;-85
2023/04/05 04:13:43;;;;;;;6.47;5.82;;;;;;;-5.27;100.00;93142.94;2076332;28;20212;-84
2023/04/05 04:14:44;;;;;;;7.78;5.30;;;;;;;-4.93;100.00;93147.94;2068556;28;20493;-85
2023/04/05 04:15:45;;;;;;;8.20;5.88;;;;;;;-4.93;100.00;93147.19;2068717;28;20052;-84
2023/04/05 04:16:46;;;;;;;7.82;5.53;;;;;;;-4.90;100.00;93144.69;2068657;28;20037;-85
2023/04/05 04:17:47;;;;;;;9.88;5.50;;;;;;;-5.10;100.00;93143.59;2077587;28;20025;-84
2023/04/05 04:18:53;;;;;;;9.50;5.70;;;;;;;-5.14;100.00;93139.34;2069890;28;20029;-84
2023/04/05 04:19:54;;;;;;;7.90;5.80;;;;;;;-5.18;100.00;93139.22;2067071;28;20034;-85
2023/04/05 04:20:59;;;;;;;7.88;6.00;;;;;;;-5.28;100.00;93142.19;2067924;28;20029;-84
2023/04/05 04:22:01;;;;;;;8.27;5.88;;;;;;;-5.35;100.00;93149.75;2076066;28;20111;-84
2023/04/05 04:23:05;;;;;;;9.13;6.13;;;;;;;-5.34;100.00;93143.47;2077112;28;20025;-84
2023/04/05 04:24:06;;;;;;;8.07;5.85;;;;;;;-5.32;100.00;93133.47;2066922;28;20030;-85
2023/04/05 04:25:11;;;;;;;9.45;6.07;;;;;;;-5.37;100.00;93137.03;2059289;28;20030;-83
2023/04/05 04:26:25;;;;;;;7.72;5.80;;;;;;;-5.32;100.00;93133.47;2068818;28;20025;-84
2023/04/05 04:27:28;;;;;;;7.03;5.70;;;;;;;-5.47;100.00;93142.59;2067648;28;20034;-85
2023/04/05 04:28:33;;;;;;;7.05;5.18;;;;;;;-5.41;100.00;93135.38;2057856;28;20118;-84
2023/04/05 04:29:45;;;;;;;9.18;5.82;;;;;;;-5.30;100.00;93143.59;2063320;28;20446;-85
2023/04/05 04:30:46;;;;;;;7.00;5.53;;;;;;;-5.23;100.00;93144.59;2070851;28;20093;-84
2023/04/05 04:31:49;;;;;;;7.90;5.82;;;;;;;-5.24;100.00;93142.31;2068852;28;20282;-84
2023/04/05 04:32:54;;;;;;;6.10;5.10;;;;;;;-5.19;100.00;93144.75;2067969;28;20071;-86
2023/04/05 04:34:02;;;;;;;9.88;6.28;;;;;;;-5.15;100.00;93143.03;2085945;28;20107;-83
2023/04/05 04:35:04;;;;;;;8.30;5.30;;;;;;;-5.14;100.00;93144.53;2077148;28;20021;-84
2023/04/05 04:36:12;;;;;;;10.30;5.57;;;;;;;-5.08;100.00;93143.31;2061558;28;20130;-84
2023/04/05 04:37:17;;;;;;;7.38;5.97;;;;;;;-5.12;100.00;93142.41;2072547;28;20007;-85
2023/04/05 04:38:19;;;;;;;8.88;5.60;;;;;;;-5.27;100.00;93141.09;2081027;28;20190;-84
2023/04/05 04:39:25;;;;;;;8.23;5.90;;;;;;;-5.28;100.00;93142.19;2068478;28;20037;-84
2023/04/05 04:40:37;;;;;;;9.23;6.18;;;;;;;-5.33;100.00;93150.94;2065316;28;20153;-84
2023/04/05 04:41:45;;;;;;;7.35;5.65;;;;;;;-5.35;100.00;93142.69;2078923;28;20045;-84
2023/04/05 04:42:48;;;;;;;6.97;4.95;;;;;;;-5.34;100.00;93140.84;2076210;28;20211;-85
2023/04/05 04:43:50;;;;;;;7.13;5.20;;;;;;;-5.36;100.00;93146.34;2073087;28;20176;-84
2023/04/05 04:44:53;;;;;;;7.53;5.63;;;;;;;-5.38;100.00;93138.09;2065285;28;20022;-84
2023/04/05 04:45:54;;;;;;;9.13;5.65;;;;;;;-5.34;100.00;93151.28;2070094;28;20022;-83
2023/04/05 04:46:55;;;;;;;7.18;5.60;;;;;;;-5.30;100.00;93149.56;2067325;28;20381;-83
2023/04/05 04:48:00;;;;;;;8.60;5.78;;;;;;;-5.37;100.00;93144.06;2075600;28;20017;-84
2023/04/05 04:49:05;;;;;;;7.65;4.95;;;;;;;-5.45;100.00;93148.25;2068310;28;20030;-84
2023/04/05 04:50:07;;;;;;;7.88;5.47;;;;;;;-5.57;100.00;93151.53;2076552;28;20553;-84
2023/04/05 04:51:09;;;;;;;7.55;5.40;;;;;;;-5.53;100.00;93151.69;2060589;28;20027;-85
2023/04/05 04:52:11;;;;;;;8.75;6.15;;;;;;;-5.56;100.00;93149.69;2068003;28;20537;-85
2023/04/05 04:53:12;;;;;;;8.93;5.47;;;;;;;-5.53;100.00;93148.28;2078238;28;20075;-84
2023/04/05 04:54:19;;;;;;;7.45;5.43;;;;;;;-5.54;100.00;93149.38;2078013;28;20037;-84
2023/04/05 04:55:24;;;;;;;7.32;5.78;;;;;;;-5.49;100.00;93142.13;2072603;28;20025;-83
2023/04/05 04:56:25;;;;;;;8.20;5.95;;;;;;;-5.46;100.00;93145.97;2076198;28;20516;-84
2023/04/05 04:57:26;;;;;;;8.32;5.38;;;;;;;-5.55;100.00;93151.22;2072286;28;20268;-85
2023/04/05 04:58:27;;;;;;;7.70;5.38;;;;;;;-5.42;100.00;93152.84;2080363;28;20322;-85
2023/04/05 04:59:28;;;;;;;6.75;5.97;;;;;;;-5.41;100.00;93153.59;2076756;28;20021;-86
2023/04/05 05:00:29;;;;;;;9.82;6.25;;;;;;;-5.44;100.00;93151.63;2068148;28;20792;-86